Time;durP1;ratioP1;P1;durP2;ratioP2;P2;SDS_P1;SDS_P2;PMS_P1;PMS_P2;Temp;Humidity;BMP_temperature;BMP_pressure;BME280_temperature;BME280_humidity;BME280_pressure;Samples;Min_cycle;Max_cycle;Signal;HPM_P1;HPM_P2
2023/05/18 00:00:46;;;;;;;;;;;7.50;99.90;;;;;;6156362;23;19920;-85
2023/05/18 00:03:11;;;;;;;;;;;7.60;99.90;;;;;;6129096;23;19921;-84
2023/05/18 00:05:37;;;;;;;;;;;7.60;99.90;;;;;;6129854;23;19921;-85
2023/05/18 00:08:02;;;;;;;;;;;7.90;99.90;;;;;;6155503;23;19921;-85
2023/05/18 00:10:34;;;;;;;;;;;7.60;99.90;;;;;;6133577;23;20008;-84
2023/05/18 00:13:04;;;;;;;;;;;7.70;99.90;;;;;;6129550;23;19920;-84
2023/05/18 00:15:29;;;;;;;;;;;6.60;99.90;;;;;;6156017;23;19925;-85
2023/05/18 00:17:55;;;;;;;;;;;7.60;99.90;;;;;;6155207;23;19927;-85
2023/05/18 00:20:25;;;;;;;;;;;7.70;99.90;;;;;;6155847;23;19928;-85
2023/05/18 00:22:51;;;;;;;;;;;7.70;99.90;;;;;;6128561;23;19991;-85
2023/05/18 00:25:17;;;;;;;;;;;8.40;99.90;;;;;;6156302;23;19921;-86
2023/05/18 00:27:42;;;;;;;;;;;7.90;99.90;;;;;;6129560;23;20227;-85
2023/05/18 00:30:08;;;;;;;;;;;7.80;99.90;;;;;;6128690;23;19958;-84
2023/05/18 00:32:34;;;;;;;;;;;7.70;99.90;;;;;;6129810;23;20304;-85
2023/05/18 00:34:59;;;;;;;;;;;7.80;99.90;;;;;;6155771;23;19921;-85
2023/05/18 00:37:25;;;;;;;;;;;7.80;99.90;;;;;;6155182;23;20250;-85
2023/05/18 00:39:50;;;;;;;;;;;7.80;99.90;;;;;;6129246;23;19920;-84
2023/05/18 00:42:16;;;;;;;;;;;7.90;99.90;;;;;;6129748;23;19927;-85
2023/05/18 00:44:41;;;;;;;;;;;7.90;99.90;;;;;;6155255;23;19916;-85
2023/05/18 00:47:08;;;;;;;;;;;7.90;99.90;;;;;;6155637;23;19925;-84
2023/05/18 00:49:34;;;;;;;;;;;7.80;99.90;;;;;;6129908;23;20231;-85
2023/05/18 00:52:00;;;;;;;;;;;7.80;99.90;;;;;;6128121;23;19947;-84
2023/05/18 00:54:28;;;;;;;;;;;8.20;99.90;;;;;;6156102;23;19920;-84
2023/05/18 00:56:53;;;;;;;;;;;7.80;99.90;;;;;;6155162;23;19923;-84
2023/05/18 00:59:19;;;;;;;;;;;8.70;99.90;;;;;;6155029;23;19944;-85
2023/05/18 01:01:45;;;;;;;;;;;8.00;99.90;;;;;;6129889;23;19927;-84
2023/05/18 01:04:13;;;;;;;;;;;7.80;99.90;;;;;;6129471;23;19927;-84
2023/05/18 01:06:39;;;;;;;;;;;7.80;99.90;;;;;;6128767;23;19924;-86
2023/05/18 01:09:07;;;;;;;;;;;7.70;99.90;;;;;;6129420;23;19983;-85
2023/05/18 01:11:38;;;;;;;;;;;7.80;99.90;;;;;;6155453;23;19921;-85
2023/05/18 01:14:10;;;;;;;;;;;7.70;99.90;;;;;;6153403;23;19975;-84
2023/05/18 01:16:42;;;;;;;;;;;7.60;99.90;;;;;;6129644;23;19920;-85
2023/05/18 01:19:16;;;;;;;;;;;7.80;99.90;;;;;;6154840;23;19931;-84
2023/05/18 01:21:48;;;;;;;;;;;7.40;99.90;;;;;;6129725;23;19927;-84
2023/05/18 01:24:32;;;;;;;;;;;7.40;99.90;;;;;;6129723;23;19952;-84
2023/05/18 01:26:59;;;;;;;;;;;7.40;99.90;;;;;;6130295;23;19921;-84
2023/05/18 01:29:29;;;;;;;;;;;7.30;99.90;;;;;;6131616;23;19959;-85
2023/05/18 01:31:55;;;;;;;;;;;7.30;99.90;;;;;;6131021;23;19921;-84
2023/05/18 01:34:21;;;;;;;;;;;7.30;99.90;;;;;;6130368;23;20331;-85
2023/05/18 01:36:47;;;;;;;;;;;7.30;99.90;;;;;;6131321;23;20011;-85
2023/05/18 01:39:13;;;;;;;;;;;8.60;99.90;;;;;;6131302;23;19920;-86
2023/05/18 01:41:43;;;;;;;;;;;7.10;99.90;;;;;;6130610;23;20365;-86
2023/05/18 01:44:35;;;;;;;;;;;7.10;99.90;;;;;;6131158;23;19988;-85
2023/05/18 01:47:11;;;;;;;;;;;8.30;99.90;;;;;;6131209;23;20333;-86
2023/05/18 01:49:36;;;;;;;;;;;7.10;99.90;;;;;;6157544;23;19924;-86
2023/05/18 01:52:15;;;;;;;;;;;7.00;99.90;;;;;;6157299;23;19948;-86
2023/05/18 01:54:43;;;;;;;;;;;7.00;99.90;;;;;;6156993;23;20253;-86
2023/05/18 01:57:09;;;;;;;;;;;7.80;99.90;;;;;;6131008;23;19925;-86
2023/05/18 01:59:36;;;;;;;;;;;7.10;99.90;;;;;;6131192;23;19928;-85
2023/05/18 02:02:02;;;;;;;;;;;7.30;99.90;;;;;;6157060;23;19920;-85
2023/05/18 02:04:27;;;;;;;;;;;7.10;99.90;;;;;;6158107;23;20214;-86
2023/05/18 02:06:55;;;;;;;;;;;7.10;99.90;;;;;;6160389;23;19921;-85
2023/05/18 02:09:21;;;;;;;;;;;7.10;99.90;;;;;;6133235;23;19944;-86
2023/05/18 02:11:50;;;;;;;;;;;7.10;99.90;;;;;;6152510;23;19944;-86
2023/05/18 02:14:18;;;;;;;;;;;7.10;99.90;;;;;;6163560;23;20416;-85
2023/05/18 02:16:45;;;;;;;;;;;7.10;99.90;;;;;;6160803;23;20353;-86
2023/05/18 02:19:14;;;;;;;;;;;7.00;99.90;;;;;;6163743;23;19960;-86
2023/05/18 02:21:42;;;;;;;;;;;7.80;99.90;;;;;;6164986;23;19946;-86
2023/05/18 02:24:07;;;;;;;;;;;7.00;99.90;;;;;;6162454;23;19921;-85
2023/05/18 02:26:33;;;;;;;;;;;6.90;99.90;;;;;;6157542;23;19928;-86
2023/05/18 02:28:59;;;;;;;;;;;6.90;99.90;;;;;;6157002;23;20341;-86
2023/05/18 02:31:28;;;;;;;;;;;6.90;99.90;;;;;;6158333;23;19920;-86
2023/05/18 02:33:53;;;;;;;;;;;6.90;99.90;;;;;;6164193;23;19920;-85
2023/05/18 02:38:56;;;;;;;;;;;6.90;99.90;;;;;;6171337;23;19928;-86
2023/05/18 02:41:25;;;;;;;;;;;7.00;99.90;;;;;;6141131;23;19925;-85
2023/05/18 02:43:50;;;;;;;;;;;7.00;99.90;;;;;;6139430;23;19928;-86
2023/05/18 02:46:16;;;;;;;;;;;7.00;99.90;;;;;;6133027;23;19917;-86
2023/05/18 02:48:44;;;;;;;;;;;7.00;99.90;;;;;;6130475;23;20261;-86
2023/05/18 02:51:10;;;;;;;;;;;7.10;99.90;;;;;;6155857;23;19999;-86
2023/05/18 02:53:35;;;;;;;;;;;7.30;99.90;;;;;;6130379;23;19953;-85
2023/05/18 02:56:02;;;;;;;;;;;7.10;99.90;;;;;;6129968;23;19948;-86
2023/05/18 02:58:28;;;;;;;;;;;7.10;99.90;;;;;;6129767;23;19916;-85
2023/05/18 03:00:58;;;;;;;;;;;7.20;99.90;;;;;;6130213;23;20352;-85
2023/05/18 03:03:24;;;;;;;;;;;7.30;99.90;;;;;;6130464;23;19920;-85
2023/05/18 03:05:52;;;;;;;;;;;8.00;99.90;;;;;;6129556;23;19921;-84
2023/05/18 03:08:19;;;;;;;;;;;7.30;99.90;;;;;;6157097;23;19927;-84
2023/05/18 03:10:45;;;;;;;;;;;7.30;99.90;;;;;;6130571;23;20325;-85
2023/05/18 03:13:10;;;;;;;;;;;7.40;99.90;;;;;;6129581;23;19920;-85
2023/05/18 03:15:36;;;;;;;;;;;7.30;99.90;;;;;;6130359;23;19921;-85
2023/05/18 03:18:02;;;;;;;;;;;7.30;99.90;;;;;;6129990;23;19931;-84
2023/05/18 03:20:30;;;;;;;;;;;7.30;99.90;;;;;;6155656;23;19928;-85
2023/05/18 03:22:56;;;;;;;;;;;7.50;99.90;;;;;;6130407;23;19927;-85
2023/05/18 03:25:24;;;;;;;;;;;7.40;99.90;;;;;;6130347;23;19935;-85
2023/05/18 03:27:51;;;;;;;;;;;7.40;99.90;;;;;;6155729;23;19975;-84
2023/05/18 03:30:17;;;;;;;;;;;7.40;99.90;;;;;;6130053;23;19995;-85
2023/05/18 03:32:43;;;;;;;;;;;7.40;99.90;;;;;;6129352;23;20396;-84
2023/05/18 03:35:08;;;;;;;;;;;7.40;99.90;;;;;;6156340;23;19921;-85
2023/05/18 03:37:34;;;;;;;;;;;7.50;99.90;;;;;;6130191;23;19921;-85
2023/05/18 03:40:09;;;;;;;;;;;8.00;99.90;;;;;;6153259;23;20031;-85
2023/05/18 03:42:35;;;;;;;;;;;7.50;99.90;;;;;;6156308;23;20341;-85
2023/05/18 03:45:05;;;;;;;;;;;7.60;99.90;;;;;;6154330;23;19920;-85
2023/05/18 03:47:31;;;;;;;;;;;7.60;99.90;;;;;;6155190;23;19927;-85
2023/05/18 03:49:56;;;;;;;;;;;7.60;99.90;;;;;;6156023;23;19921;-85
2023/05/18 03:52:22;;;;;;;;;;;7.60;99.90;;;;;;6156135;23;20265;-85
2023/05/18 03:54:48;;;;;;;;;;;7.60;99.90;;;;;;6155181;23;19965;-84
2023/05/18 03:57:17;;;;;;;;;;;7.60;99.90;;;;;;6154706;23;19968;-85
2023/05/18 03:59:43;;;;;;;;;;;7.60;99.90;;;;;;6156115;23;19925;-85
2023/05/18 04:02:10;;;;;;;;;;;7.70;99.90;;;;;;6153472;23;19924;-85
2023/05/18 04:04:35;;;;;;;;;;;7.70;99.90;;;;;;6156306;23;20257;-85
2023/05/18 04:07:01;;;;;;;;;;;7.90;99.90;;;;;;6154248;23;19952;-86
2023/05/18 04:09:29;;;;;;;;;;;7.70;99.90;;;;;;6153854;23;19948;-86
2023/05/18 04:11:57;;;;;;;;;;;7.60;99.90;;;;;;6153877;23;19921;-85
2023/05/18 04:14:23;;;;;;;;;;;7.70;99.90;;;;;;6156190;23;19948;-86
2023/05/18 04:16:50;;;;;;;;;;;7.80;99.90;;;;;;6153483;23;20290;-86
2023/05/18 04:19:17;;;;;;;;;;;8.00;99.90;;;;;;6156332;23;19924;-85
2023/05/18 04:21:46;;;;;;;;;;;7.80;99.90;;;;;;6156173;23;19920;-85
2023/05/18 04:24:13;;;;;;;;;;;7.80;99.90;;;;;;6155208;23;19988;-85
2023/05/18 04:26:39;;;;;;;;;;;8.10;99.90;;;;;;6154226;23;19917;-84
2023/05/18 04:29:06;;;;;;;;;;;8.40;99.90;;;;;;6153115;23;20003;-84
2023/05/18 04:31:33;;;;;;;;;;;7.90;99.90;;;;;;6156186;23;19971;-85
2023/05/18 04:33:59;;;;;;;;;;;8.00;99.90;;;;;;6155761;23;19975;-85
2023/05/18 04:36:29;;;;;;;;;;;7.90;99.90;;;;;;6153379;23;19921;-85
2023/05/18 04:38:57;;;;;;;;;;;8.40;99.90;;;;;;6155527;23;20352;-84
2023/05/18 04:41:32;;;;;;;;;;;8.50;99.90;;;;;;6156218;23;19999;-85
2023/05/18 04:43:59;;;;;;;;;;;9.40;99.90;;;;;;6155051;23;20375;-84
2023/05/18 04:46:28;;;;;;;;;;;8.00;99.90;;;;;;6155598;23;20281;-84
2023/05/18 04:48:56;;;;;;;;;;;8.10;99.90;;;;;;6155591;23;20276;-84
2023/05/18 04:51:22;;;;;;;;;;;8.20;99.90;;;;;;6128674;23;19995;-84
2023/05/18 04:53:49;;;;;;;;;;;8.30;99.90;;;;;;6129575;23;19963;-84
2023/05/18 04:56:15;;;;;;;;;;;8.40;99.90;;;;;;6129723;23;20277;-85
2023/05/18 04:58:44;;;;;;;;;;;8.40;99.90;;;;;;6128665;23;19955;-84
2023/05/18 05:01:16;;;;;;;;;;;8.50;99.90;;;;;;6129834;23;20349;-84
2023/05/18 05:03:42;;;;;;;;;;;8.60;99.90;;;;;;6158148;23;19931;-84
2023/05/18 05:06:08;;;;;;;;;;;9.60;99.90;;;;;;6156717;23;19925;-85
2023/05/18 05:08:33;;;;;;;;;;;8.80;99.90;;;;;;6131515;23;19921;-85
2023/05/18 05:10:59;;;;;;;;;;;9.10;99.90;;;;;;6157247;23;19929;-85
2023/05/18 05:13:25;;;;;;;;;;;8.90;99.90;;;;;;6156776;23;19921;-85
2023/05/18 05:15:51;;;;;;;;;;;9.90;99.90;;;;;;6131173;23;19920;-85
2023/05/18 05:18:16;;;;;;;;;;;9.00;99.90;;;;;;6157273;23;19928;-84
2023/05/18 05:20:42;;;;;;;;;;;10.10;99.90;;;;;;6131674;23;19924;-85
2023/05/18 05:23:10;;;;;;;;;;;9.10;99.90;;;;;;6157509;23;19920;-84
2023/05/18 05:25:36;;;;;;;;;;;9.10;99.90;;;;;;6130715;23;19994;-84
2023/05/18 05:28:01;;;;;;;;;;;9.20;99.90;;;;;;6130999;23;19925;-84
2023/05/18 05:30:27;;;;;;;;;;;9.30;99.90;;;;;;6157667;23;19920;-85
2023/05/18 05:32:53;;;;;;;;;;;9.50;99.90;;;;;;6156513;23;19925;-84
2023/05/18 05:35:18;;;;;;;;;;;9.50;99.90;;;;;;6131143;23;19920;-85
2023/05/18 05:37:44;;;;;;;;;;;9.70;99.90;;;;;;6133440;23;19927;-85
2023/05/18 05:40:09;;;;;;;;;;;10.10;99.90;;;;;;6154809;23;19921;-84
2023/05/18 05:42:35;;;;;;;;;;;9.80;99.90;;;;;;6155482;23;19927;-84
2023/05/18 05:45:01;;;;;;;;;;;9.90;99.90;;;;;;6155885;23;20288;-83
2023/05/18 05:47:26;;;;;;;;;;;10.00;99.90;;;;;;6157430;23;20248;-85
2023/05/18 05:49:52;;;;;;;;;;;10.10;99.90;;;;;;6155562;23;20256;-83
2023/05/18 05:52:17;;;;;;;;;;;10.20;99.90;;;;;;6156224;23;20235;-85
2023/05/18 05:54:43;;;;;;;;;;;10.10;99.90;;;;;;6156697;23;19930;-84
2023/05/18 05:57:08;;;;;;;;;;;10.10;99.90;;;;;;6156928;23;19927;-84
2023/05/18 05:59:34;;;;;;;;;;;10.20;99.90;;;;;;6157682;23;20286;-84
2023/05/18 06:02:00;;;;;;;;;;;10.20;99.90;;;;;;6154585;23;20349;-84
2023/05/18 06:04:25;;;;;;;;;;;11.40;99.90;;;;;;6157288;23;20282;-84
2023/05/18 06:06:51;;;;;;;;;;;10.30;99.90;;;;;;6155463;23;19921;-84
2023/05/18 06:09:19;;;;;;;;;;;10.40;99.90;;;;;;6154674;23;19921;-84
2023/05/18 06:11:45;;;;;;;;;;;10.40;99.90;;;;;;6156904;23;20054;-83
2023/05/18 06:14:11;;;;;;;;;;;10.50;99.90;;;;;;6156612;23;20354;-83
2023/05/18 06:16:37;;;;;;;;;;;10.50;99.90;;;;;;6156586;23;19920;-83
2023/05/18 06:19:02;;;;;;;;;;;10.50;99.90;;;;;;6156911;23;20021;-83
2023/05/18 06:21:28;;;;;;;;;;;10.60;99.90;;;;;;6156584;23;19921;-83
2023/05/18 06:23:53;;;;;;;;;;;11.30;99.90;;;;;;6154761;23;19944;-84
2023/05/18 06:26:20;;;;;;;;;;;10.80;99.90;;;;;;6157092;23;20322;-82
2023/05/18 06:28:46;;;;;;;;;;;10.80;99.90;;;;;;6154519;23;19987;-82
2023/05/18 06:31:12;;;;;;;;;;;10.90;99.90;;;;;;6155269;23;20006;-83
2023/05/18 06:33:37;;;;;;;;;;;11.10;99.90;;;;;;6157338;23;19923;-83
2023/05/18 06:36:03;;;;;;;;;;;11.00;99.90;;;;;;6154744;23;19921;-83
2023/05/18 06:38:29;;;;;;;;;;;10.90;99.90;;;;;;6156577;23;19920;-83
2023/05/18 06:40:54;;;;;;;;;;;10.90;99.90;;;;;;6158124;23;19943;-84
2023/05/18 06:43:20;;;;;;;;;;;10.90;99.90;;;;;;6159489;23;19945;-84
2023/05/18 06:45:46;;;;;;;;;;;10.80;99.90;;;;;;6158700;23;19992;-82
2023/05/18 06:48:11;;;;;;;;;;;10.90;99.90;;;;;;6156760;23;19925;-82
2023/05/18 06:50:37;;;;;;;;;;;11.00;99.90;;;;;;6154522;23;19956;-82
2023/05/18 06:53:03;;;;;;;;;;;10.90;99.90;;;;;;6156239;23;20308;-81
2023/05/18 06:55:28;;;;;;;;;;;10.90;99.90;;;;;;6156956;23;19921;-82
2023/05/18 06:57:57;;;;;;;;;;;11.00;99.90;;;;;;6155802;23;19923;-81
2023/05/18 07:00:22;;;;;;;;;;;11.10;99.90;;;;;;6154603;23;19932;-80
2023/05/18 07:02:48;;;;;;;;;;;11.20;99.90;;;;;;6154316;23;19920;-77
2023/05/18 07:05:17;;;;;;;;;;;11.40;99.90;;;;;;6151312;23;19963;-82
2023/05/18 07:07:42;;;;;;;;;;;11.50;99.90;;;;;;6155845;23;19932;-81
2023/05/18 07:10:08;;;;;;;;;;;11.60;99.90;;;;;;6153439;23;19920;-83
2023/05/18 07:12:34;;;;;;;;;;;11.80;99.90;;;;;;6153015;23;19999;-81
2023/05/18 07:14:59;;;;;;;;;;;11.80;99.90;;;;;;6155766;23;20007;-83
2023/05/18 07:17:28;;;;;;;;;;;11.90;99.80;;;;;;6154407;23;19924;-83
2023/05/18 07:19:54;;;;;;;;;;;12.10;99.90;;;;;;6153861;23;19925;-84
2023/05/18 07:22:19;;;;;;;;;;;12.20;99.90;;;;;;6154479;23;20246;-84
2023/05/18 07:24:45;;;;;;;;;;;12.30;98.70;;;;;;6153308;23;20253;-79
2023/05/18 07:27:10;;;;;;;;;;;12.40;99.20;;;;;;6154993;23;19921;-79
2023/05/18 07:29:36;;;;;;;;;;;12.40;98.80;;;;;;6155523;23;19976;-82
2023/05/18 07:32:01;;;;;;;;;;;12.70;98.20;;;;;;6152893;23;19959;-80
2023/05/18 07:34:27;;;;;;;;;;;12.60;98.20;;;;;;6155451;23;20334;-80
2023/05/18 07:36:52;;;;;;;;;;;12.70;99.20;;;;;;6153631;23;19931;-81
2023/05/18 07:39:18;;;;;;;;;;;12.60;98.00;;;;;;6154220;23;19920;-83
2023/05/18 07:41:44;;;;;;;;;;;12.70;99.30;;;;;;6156185;23;20234;-81
2023/05/18 07:44:10;;;;;;;;;;;12.80;98.90;;;;;;6155343;23;19975;-81
2023/05/18 07:46:39;;;;;;;;;;;13.00;99.30;;;;;;6155322;23;20229;-81
2023/05/18 07:49:05;;;;;;;;;;;13.00;99.20;;;;;;6155430;23;19958;-83
2023/05/18 07:51:31;;;;;;;;;;;12.90;97.90;;;;;;6154400;23;19921;-85
2023/05/18 07:53:56;;;;;;;;;;;12.90;98.90;;;;;;6154522;23;20031;-88
2023/05/18 07:56:23;;;;;;;;;;;14.00;98.20;;;;;;6157000;23;19927;-89
2023/05/18 07:58:51;;;;;;;;;;;12.90;99.00;;;;;;6155159;23;19921;-76
2023/05/18 08:01:17;;;;;;;;;;;12.90;99.90;;;;;;6155562;23;19964;-85
2023/05/18 08:03:42;;;;;;;;;;;13.00;98.60;;;;;;6156826;23;19927;-87
2023/05/18 08:06:08;;;;;;;;;;;12.90;97.80;;;;;;6154087;23;20307;-82
2023/05/18 08:08:36;;;;;;;;;;;12.90;98.00;;;;;;6156118;23;19921;-86
2023/05/18 08:11:02;;;;;;;;;;;13.10;99.40;;;;;;6156125;23;19927;-83
2023/05/18 08:13:29;;;;;;;;;;;13.10;99.90;;;;;;6179140;23;20131;-83
2023/05/18 08:15:55;;;;;;;;;;;13.40;98.30;;;;;;6182625;23;20337;-85
2023/05/18 08:18:21;;;;;;;;;;;13.40;97.90;;;;;;6157871;23;20252;-86
2023/05/18 08:20:52;;;;;;;;;;;13.50;97.60;;;;;;6185812;23;19920;-81
2023/05/18 08:23:18;;;;;;;;;;;13.60;98.50;;;;;;6185218;23;19921;-82
2023/05/18 08:25:44;;;;;;;;;;;13.50;98.10;;;;;;6182856;23;19931;-80
2023/05/18 08:28:10;;;;;;;;;;;13.60;99.00;;;;;;6158454;23;20256;-77
2023/05/18 08:30:35;;;;;;;;;;;13.90;98.10;;;;;;6185893;23;20163;-79
2023/05/18 08:33:01;;;;;;;;;;;14.60;98.80;;;;;;6159175;23;19926;-78
2023/05/18 08:35:27;;;;;;;;;;;15.10;95.90;;;;;;6157617;23;20591;-78
2023/05/18 08:37:53;;;;;;;;;;;15.60;96.10;;;;;;6159218;23;19924;-83
2023/05/18 08:40:19;;;;;;;;;;;16.00;95.50;;;;;;6159647;23;19928;-83
2023/05/18 08:43:02;;;;;;;;;;;15.90;93.60;;;;;;6163030;23;19920;-81
2023/05/18 08:46:00;;;;;;;;;;;15.80;92.90;;;;;;6130200;23;19963;-84
2023/05/18 08:48:26;;;;;;;;;;;15.50;94.80;;;;;;6081572;23;19920;-80
2023/05/18 08:50:56;;;;;;;;;;;15.80;94.30;;;;;;6127936;23;19920;-77
2023/05/18 08:53:23;;;;;;;;;;;16.00;94.70;;;;;;6155819;23;19917;-79
2023/05/18 08:55:49;;;;;;;;;;;16.10;94.40;;;;;;6155237;23;20003;-78
2023/05/18 08:58:18;;;;;;;;;;;16.30;93.10;;;;;;6153713;23;19995;-76
2023/05/18 09:07:55;;;;;;;;;;;16.40;94.60;;;;;;6096019;23;19965;-75
2023/05/18 09:10:54;;;;;;;;;;;15.40;93.30;;;;;;6087562;23;19925;-76
2023/05/18 09:13:23;;;;;;;;;;;16.40;93.70;;;;;;6095083;23;19965;-74
2023/05/18 09:15:52;;;;;;;;;;;16.40;93.90;;;;;;6094359;23;19921;-76
2023/05/18 09:18:41;;;;;;;;;;;15.90;93.40;;;;;;6095133;23;19922;-75
2023/05/18 09:21:06;;;;;;;;;;;15.80;93.70;;;;;;6095455;23;20308;-74
2023/05/18 09:23:32;;;;;;;;;;;15.90;94.50;;;;;;6090645;23;19929;-85
2023/05/18 09:26:26;;;;;;;;;;;15.90;94.40;;;;;;6127734;23;20252;-79
2023/05/18 09:32:25;;;;;;;;;;;15.60;93.70;;;;;;6117061;23;20329;-77
2023/05/18 09:34:51;;;;;;;;;;;16.30;93.80;;;;;;6155755;23;20359;-77
2023/05/18 09:37:35;;;;;;;;;;;16.30;93.80;;;;;;6182821;23;19939;-74
2023/05/18 09:40:05;;;;;;;;;;;16.20;95.00;;;;;;6181742;23;20399;-73
2023/05/18 09:42:35;;;;;;;;;;;16.50;94.40;;;;;;6157243;23;19991;-73
2023/05/18 09:45:01;;;;;;;;;;;16.60;94.30;;;;;;6157132;23;19924;-74
2023/05/18 09:47:26;;;;;;;;;;;16.80;94.10;;;;;;6184709;23;19920;-74
2023/05/18 09:49:54;;;;;;;;;;;17.00;95.00;;;;;;6158905;23;20252;-73
2023/05/18 09:52:20;;;;;;;;;;;17.00;93.50;;;;;;6186127;23;19920;-71
2023/05/18 09:54:51;;;;;;;;;;;17.00;93.30;;;;;;6158434;23;20325;-71
2023/05/18 09:57:19;;;;;;;;;;;16.90;93.70;;;;;;6185967;23;19920;-73
2023/05/18 09:59:49;;;;;;;;;;;17.10;92.90;;;;;;6184939;23;19943;-72
2023/05/18 10:02:18;;;;;;;;;;;17.20;92.20;;;;;;6159356;23;19924;-72
2023/05/18 10:04:43;;;;;;;;;;;17.20;93.00;;;;;;6159261;23;19928;-71
2023/05/18 10:07:11;;;;;;;;;;;17.20;91.80;;;;;;6157664;23;19971;-75
2023/05/18 10:09:41;;;;;;;;;;;17.30;92.50;;;;;;6186199;23;19920;-75
2023/05/18 10:12:13;;;;;;;;;;;16.30;92.10;;;;;;6155135;23;20011;-73
2023/05/18 10:14:40;;;;;;;;;;;17.90;91.90;;;;;;6157841;23;20133;-75
2023/05/18 10:17:06;;;;;;;;;;;17.90;91.70;;;;;;6184903;23;19920;-75
2023/05/18 10:19:33;;;;;;;;;;;17.50;91.50;;;;;;6187857;23;19995;-75
2023/05/18 10:22:01;;;;;;;;;;;17.70;92.60;;;;;;6170014;23;19927;-74
2023/05/18 10:24:27;;;;;;;;;;;18.00;92.60;;;;;;6153373;23;19955;-80
2023/05/18 10:26:56;;;;;;;;;;;18.20;91.70;;;;;;6157723;23;19966;-76
2023/05/18 10:53:16;;;;;;;;;;;18.80;90.60;;;;;;6186583;23;19975;-75
2023/05/18 10:55:53;;;;;;;;;;;18.70;91.00;;;;;;6159884;23;19927;-75
2023/05/18 10:58:26;;;;;;;;;;;18.60;90.60;;;;;;6186291;23;19920;-73
2023/05/18 11:00:56;;;;;;;;;;;18.60;90.70;;;;;;6159302;23;19920;-73
2023/05/18 11:03:24;;;;;;;;;;;18.50;92.00;;;;;;6159046;23;19920;-72
2023/05/18 11:05:53;;;;;;;;;;;18.60;91.10;;;;;;6186070;23;19952;-74
2023/05/18 11:08:25;;;;;;;;;;;18.40;90.30;;;;;;6160355;23;19943;-72
2023/05/18 11:10:58;;;;;;;;;;;18.20;90.70;;;;;;6159068;23;19916;-72
2023/05/18 11:13:26;;;;;;;;;;;18.40;91.20;;;;;;6159953;23;19920;-74
2023/05/18 11:15:52;;;;;;;;;;;18.30;90.60;;;;;;6159491;23;19917;-73
2023/05/18 11:18:17;;;;;;;;;;;18.40;90.80;;;;;;6185598;23;19987;-72
2023/05/18 11:20:47;;;;;;;;;;;18.40;90.20;;;;;;6159731;23;19924;-72
2023/05/18 11:23:19;;;;;;;;;;;18.60;91.30;;;;;;6185917;23;20352;-72
2023/05/18 11:25:47;;;;;;;;;;;18.60;90.00;;;;;;6159177;23;19920;-74
2023/05/18 11:28:13;;;;;;;;;;;18.60;90.80;;;;;;6186197;23;19995;-75
2023/05/18 11:30:43;;;;;;;;;;;18.60;91.50;;;;;;6186287;23;19959;-74
2023/05/18 11:33:10;;;;;;;;;;;18.50;90.30;;;;;;6185229;23;19943;-77
2023/05/18 11:35:54;;;;;;;;;;;18.60;92.20;;;;;;6159493;23;19928;-75
2023/05/18 11:38:22;;;;;;;;;;;18.70;91.80;;;;;;6158534;23;19967;-76
2023/05/18 11:40:51;;;;;;;;;;;18.40;91.70;;;;;;6159130;23;19920;-75
2023/05/18 11:43:23;;;;;;;;;;;18.40;91.20;;;;;;6159547;23;19966;-75
2023/05/18 11:45:53;;;;;;;;;;;18.40;91.50;;;;;;6184419;23;19995;-75
2023/05/18 11:48:22;;;;;;;;;;;18.50;92.60;;;;;;6186192;23;19921;-75
2023/05/18 11:50:58;;;;;;;;;;;18.40;92.20;;;;;;6158971;23;19943;-77
2023/05/18 11:53:25;;;;;;;;;;;17.90;91.20;;;;;;6184669;23;19926;-75
2023/05/18 11:55:58;;;;;;;;;;;18.30;91.60;;;;;;6181248;23;20289;-75
2023/05/18 11:58:24;;;;;;;;;;;18.30;91.10;;;;;;6184240;23;19947;-75
2023/05/18 12:00:50;;;;;;;;;;;18.30;91.40;;;;;;6184566;23;19920;-79
2023/05/18 12:03:23;;;;;;;;;;;18.30;92.10;;;;;;6159610;23;19987;-76
2023/05/18 12:05:52;;;;;;;;;;;19.70;93.10;;;;;;6185686;23;19966;-74
2023/05/18 12:08:30;;;;;;;;;;;18.00;93.00;;;;;;6158431;23;19999;-76
2023/05/18 12:10:56;;;;;;;;;;;17.70;92.10;;;;;;6186041;23;19920;-76
2023/05/18 12:13:21;;;;;;;;;;;18.00;93.50;;;;;;6158459;23;20226;-75
2023/05/18 12:15:59;;;;;;;;;;;17.70;92.50;;;;;;6185684;23;19927;-73
2023/05/18 12:18:26;;;;;;;;;;;17.90;92.20;;;;;;6158944;23;20324;-73
2023/05/18 12:20:52;;;;;;;;;;;17.90;93.00;;;;;;6183478;23;20340;-74
2023/05/18 12:23:18;;;;;;;;;;;17.80;93.60;;;;;;6159090;23;19924;-73
2023/05/18 12:25:43;;;;;;;;;;;17.60;92.90;;;;;;6159314;23;19978;-73
2023/05/18 12:28:09;;;;;;;;;;;17.70;94.10;;;;;;6157866;23;20245;-73
2023/05/18 12:30:35;;;;;;;;;;;17.70;94.10;;;;;;6159234;23;19920;-73
2023/05/18 12:33:04;;;;;;;;;;;17.70;93.10;;;;;;6153308;23;19932;-72
2023/05/18 12:35:31;;;;;;;;;;;17.60;93.50;;;;;;6151556;23;19921;-73
2023/05/18 12:38:01;;;;;;;;;;;17.70;93.40;;;;;;6154915;23;19983;-72
2023/05/18 12:40:36;;;;;;;;;;;17.60;94.00;;;;;;6155295;23;19968;-73
2023/05/18 12:43:03;;;;;;;;;;;17.70;93.70;;;;;;6153042;23;19921;-74
2023/05/18 12:45:30;;;;;;;;;;;17.80;94.40;;;;;;6153240;23;20396;-73
2023/05/18 12:48:02;;;;;;;;;;;17.80;93.50;;;;;;6152918;23;19924;-71
2023/05/18 12:50:28;;;;;;;;;;;17.90;93.50;;;;;;6152719;23;20337;-73
2023/05/18 12:52:54;;;;;;;;;;;18.00;94.10;;;;;;6154596;23;19928;-73
2023/05/18 12:55:20;;;;;;;;;;;17.90;94.40;;;;;;6152309;23;20322;-72
2023/05/18 12:57:57;;;;;;;;;;;17.90;94.20;;;;;;6153533;23;19927;-72
2023/05/18 13:00:23;;;;;;;;;;;18.10;93.80;;;;;;6153164;23;19921;-72
2023/05/18 13:02:48;;;;;;;;;;;17.90;93.70;;;;;;6154079;23;19975;-73
2023/05/18 13:05:14;;;;;;;;;;;18.10;93.50;;;;;;6155924;23;19928;-72
2023/05/18 13:07:43;;;;;;;;;;;18.10;94.20;;;;;;6155850;23;20349;-73
2023/05/18 13:10:31;;;;;;;;;;;18.00;93.30;;;;;;6150370;23;19927;-72
2023/05/18 13:13:02;;;;;;;;;;;18.00;93.70;;;;;;6154501;23;19924;-73
2023/05/18 13:15:32;;;;;;;;;;;18.00;93.60;;;;;;6153347;23;19996;-72
2023/05/18 13:17:58;;;;;;;;;;;17.80;93.50;;;;;;6154231;23;20102;-73
2023/05/18 13:20:32;;;;;;;;;;;17.60;94.10;;;;;;6153076;23;19927;-74
2023/05/18 13:23:02;;;;;;;;;;;17.50;94.50;;;;;;6152484;23;19920;-71
2023/05/18 13:25:27;;;;;;;;;;;17.50;94.20;;;;;;6156008;23;19923;-73
2023/05/18 13:27:53;;;;;;;;;;;17.50;94.30;;;;;;6156421;23;19950;-75
2023/05/18 13:30:20;;;;;;;;;;;17.40;94.00;;;;;;6155110;23;20218;-72
2023/05/18 13:32:48;;;;;;;;;;;17.40;94.30;;;;;;6154739;23;19927;-73
2023/05/18 13:35:14;;;;;;;;;;;17.40;93.90;;;;;;6155929;23;19920;-74
2023/05/18 13:37:40;;;;;;;;;;;17.40;94.70;;;;;;6150213;23;19920;-74
2023/05/18 13:40:06;;;;;;;;;;;17.20;95.20;;;;;;6156676;23;20293;-73
2023/05/18 13:42:31;;;;;;;;;;;17.10;95.10;;;;;;6150235;23;19921;-72
2023/05/18 13:44:57;;;;;;;;;;;17.10;95.20;;;;;;6154999;23;19950;-71
2023/05/18 13:47:26;;;;;;;;;;;17.00;95.50;;;;;;6156556;23;20017;-72
2023/05/18 13:49:52;;;;;;;;;;;17.00;95.50;;;;;;6153967;23;19921;-73
2023/05/18 13:52:17;;;;;;;;;;;17.10;95.30;;;;;;6153684;23;20003;-75
2023/05/18 13:54:43;;;;;;;;;;;17.20;95.00;;;;;;6155009;23;19964;-77
2023/05/18 13:57:09;;;;;;;;;;;17.10;95.10;;;;;;6154571;23;20292;-77
2023/05/18 13:59:34;;;;;;;;;;;16.90;95.30;;;;;;6155001;23;19920;-77
2023/05/18 14:02:00;;;;;;;;;;;16.80;95.10;;;;;;6154737;23;19960;-76
2023/05/18 14:04:26;;;;;;;;;;;16.70;96.10;;;;;;6155692;23;19996;-76
2023/05/18 14:06:53;;;;;;;;;;;16.90;96.10;;;;;;6153013;23;19947;-74
2023/05/18 14:09:18;;;;;;;;;;;16.80;96.40;;;;;;6154226;23;19925;-79
2023/05/18 14:11:44;;;;;;;;;;;16.80;96.50;;;;;;6155499;23;20313;-77
2023/05/18 14:14:10;;;;;;;;;;;16.80;96.40;;;;;;6153944;23;19928;-80
2023/05/18 14:16:35;;;;;;;;;;;16.90;96.10;;;;;;6156977;23;19921;-79
2023/05/18 14:19:01;;;;;;;;;;;16.80;96.70;;;;;;6155737;23;19925;-75
2023/05/18 14:21:27;;;;;;;;;;;16.80;96.60;;;;;;6155297;23;19920;-72
2023/05/18 14:23:52;;;;;;;;;;;17.00;96.40;;;;;;6153561;23;19921;-76
2023/05/18 14:26:18;;;;;;;;;;;17.00;95.30;;;;;;6156537;23;19924;-75
2023/05/18 14:28:43;;;;;;;;;;;17.10;95.70;;;;;;6155202;23;19920;-73
2023/05/18 14:37:01;;;;;;;;;;;17.10;95.50;;;;;;6159401;23;20298;-75
2023/05/18 14:39:27;;;;;;;;;;;17.00;96.70;;;;;;6133813;23;19970;-75
2023/05/18 14:41:53;;;;;;;;;;;17.00;96.10;;;;;;6129448;23;19925;-76
2023/05/18 14:44:21;;;;;;;;;;;17.10;96.30;;;;;;6130420;23;19920;-76
2023/05/18 14:46:47;;;;;;;;;;;17.10;96.40;;;;;;6156962;23;19944;-76
2023/05/18 14:49:12;;;;;;;;;;;17.20;96.30;;;;;;6152103;23;20249;-76
2023/05/18 14:51:41;;;;;;;;;;;17.10;96.10;;;;;;6130393;23;19921;-77
2023/05/18 14:54:06;;;;;;;;;;;17.20;95.60;;;;;;6129335;23;19920;-76
2023/05/18 14:56:32;;;;;;;;;;;17.10;96.50;;;;;;6152504;23;19977;-73
2023/05/18 14:58:58;;;;;;;;;;;16.70;96.40;;;;;;6152376;23;19991;-73
2023/05/18 15:01:23;;;;;;;;;;;16.60;96.90;;;;;;6155747;23;19951;-76
2023/05/18 15:03:49;;;;;;;;;;;16.60;97.00;;;;;;6128396;23;19952;-76
2023/05/18 15:06:14;;;;;;;;;;;16.80;97.00;;;;;;6129582;23;19921;-77